Terminal Aerodrome Forecast
Issued by NWS

Home | Current Version | Previous Version | Graphics & Text | Print | Product List | Glossary On
Versions: 1 2 3 4 5 6 7 8 9 10 11 12 13 14 15 16 17 18 19 20 21 22 23 24 25 26 27 28 29
334
FTUS43 KICT 202339
TAFHUT
TAF
KHUT 202339Z 2100/2124 01008KT P6SM BKN025 OVC035
     FM210300 03006KT P6SM BKN025 OVC035
     FM210900 01005KT 5SM BR SCT020
     FM211400 06006KT P6SM SCT040 SCT100 BKN250=

USA.gov is the U.S. government's official web portal to all federal, state and local government web resources and services.